Time;durP1;ratioP1;P1;durP2;ratioP2;P2;SDS_P1;SDS_P2;PMS_P1;PMS_P2;Temp;Humidity;BMP_temperature;BMP_pressure;BME280_temperature;BME280_humidity;BME280_pressure;Samples;Min_cycle;Max_cycle;Signal;HPM_P1;HPM_P2
2023/05/21 00:02:10;;;;;;;35.90;27.45;;;31.00;82.60;;;;;;1900876;73;21275;-87
2023/05/21 00:04:42;;;;;;;35.08;28.07;;;31.10;83.10;;;;;;1897164;74;21150;-87
2023/05/21 00:07:14;;;;;;;39.25;29.15;;;31.10;82.90;;;;;;1899525;74;21106;-86
2023/05/21 00:09:45;;;;;;;34.45;26.80;;;31.10;82.80;;;;;;1945983;72;21143;-87
2023/05/21 00:12:16;;;;;;;37.67;28.00;;;31.10;82.20;;;;;;1949199;72;21540;-86
2023/05/21 00:14:47;;;;;;;35.35;27.55;;;31.20;82.40;;;;;;1942279;72;21183;-87
2023/05/21 00:17:18;;;;;;;35.38;27.48;;;31.20;82.10;;;;;;1916977;72;21223;-89
2023/05/21 00:19:53;;;;;;;36.42;28.02;;;31.20;82.30;;;;;;1948650;72;21119;-87
2023/05/21 00:22:24;;;;;;;37.73;27.17;;;31.30;82.50;;;;;;1932635;72;21208;-85
2023/05/21 00:24:55;;;;;;;35.78;27.80;;;31.30;82.50;;;;;;1917835;73;21124;-85
2023/05/21 00:27:26;;;;;;;36.75;28.02;;;31.30;82.70;;;;;;1932701;73;21169;-86
2023/05/21 00:29:58;;;;;;;32.58;27.45;;;31.40;82.60;;;;;;1926884;72;21194;-85
2023/05/21 00:32:29;;;;;;;38.42;29.63;;;31.40;82.20;;;;;;1949151;72;21109;-84
2023/05/21 00:35:00;;;;;;;35.65;28.77;;;31.60;81.60;;;;;;1927661;72;21195;-85
2023/05/21 00:37:33;;;;;;;40.05;28.60;;;31.60;81.00;;;;;;1914882;72;21115;-86
2023/05/21 00:40:06;;;;;;;38.23;27.85;;;31.60;81.20;;;;;;1942195;72;21156;-86
2023/05/21 00:42:38;;;;;;;34.18;27.02;;;31.70;82.00;;;;;;1913166;72;21180;-85
2023/05/21 00:45:09;;;;;;;34.67;27.20;;;31.70;81.70;;;;;;1903107;74;21110;-85
2023/05/21 00:47:42;;;;;;;34.25;27.42;;;31.70;81.70;;;;;;1911437;73;21094;-85
2023/05/21 00:50:13;;;;;;;34.92;28.50;;;31.80;82.30;;;;;;1892935;74;21149;-87
2023/05/21 00:52:47;;;;;;;35.92;28.55;;;31.80;81.70;;;;;;1880244;74;21079;-85
2023/05/21 00:55:18;;;;;;;34.50;28.00;;;31.80;81.60;;;;;;1929041;73;21079;-87
2023/05/21 00:57:50;;;;;;;41.42;27.13;;;31.80;81.40;;;;;;1933933;72;21710;-86
2023/05/21 01:00:25;;;;;;;37.93;27.75;;;31.90;81.20;;;;;;1926876;73;21152;-87
2023/05/21 01:02:55;;;;;;;38.25;27.22;;;31.90;80.70;;;;;;1939577;72;21209;-86
2023/05/21 01:05:27;;;;;;;38.58;27.52;;;32.00;80.50;;;;;;1919603;73;21120;-85
2023/05/21 01:08:00;;;;;;;33.63;28.20;;;32.10;81.30;;;;;;1916416;72;21196;-86
2023/05/21 01:10:31;;;;;;;36.55;26.57;;;32.20;80.40;;;;;;1906046;73;21111;-85
2023/05/21 01:13:03;;;;;;;38.73;28.45;;;32.20;79.90;;;;;;1898746;73;21327;-86
2023/05/21 01:15:34;;;;;;;33.60;27.22;;;32.20;80.00;;;;;;1935619;72;21217;-85
2023/05/21 01:18:06;;;;;;;34.70;26.95;;;32.30;79.50;;;;;;1918388;72;21131;-84
2023/05/21 01:20:38;;;;;;;37.93;28.57;;;32.40;79.20;;;;;;1934660;72;21173;-85
2023/05/21 01:23:09;;;;;;;36.55;27.32;;;32.40;79.00;;;;;;1941845;73;21236;-87
2023/05/21 01:25:41;;;;;;;33.30;26.97;;;32.50;78.80;;;;;;1948713;72;21092;-87
2023/05/21 01:28:24;;;;;;;36.85;27.77;;;32.60;78.60;;;;;;1936288;73;21136;-85
2023/05/21 01:30:52;;;;;;;40.52;28.35;;;32.70;78.40;;;;;;1933641;73;21142;-85
2023/05/21 01:33:34;;;;;;;36.00;27.00;;;32.80;76.70;;;;;;1928338;73;21232;-85
2023/05/21 01:36:10;;;;;;;39.90;26.42;;;32.80;76.70;;;;;;1936472;73;21050;-85
2023/05/21 01:38:45;;;;;;;35.28;26.37;;;32.90;76.50;;;;;;1906504;73;21136;-85
2023/05/21 01:41:21;;;;;;;37.13;26.48;;;33.00;75.70;;;;;;1910368;72;21112;-85
2023/05/21 01:43:54;;;;;;;36.65;26.25;;;33.10;75.60;;;;;;1878987;74;21158;-85
2023/05/21 01:46:27;;;;;;;34.78;25.77;;;33.30;74.40;;;;;;1928574;73;21198;-87
2023/05/21 01:48:58;;;;;;;34.18;26.57;;;33.30;74.30;;;;;;1930056;73;21237;-86
2023/05/21 01:51:34;;;;;;;37.23;27.32;;;33.40;74.20;;;;;;1910310;72;21187;-85
2023/05/21 01:54:03;;;;;;;34.60;26.48;;;33.50;74.80;;;;;;1925014;72;21198;-85
2023/05/21 01:56:36;;;;;;;36.75;26.17;;;33.60;74.50;;;;;;1924658;73;21182;-86
2023/05/21 01:59:11;;;;;;;33.15;26.07;;;33.70;73.90;;;;;;1939928;73;21655;-84
2023/05/21 02:01:39;;;;;;;31.48;26.07;;;33.80;73.70;;;;;;1919209;72;21069;-84
2023/05/21 02:04:10;;;;;;;33.28;25.25;;;33.90;73.30;;;;;;1910677;72;21189;-85
2023/05/21 02:06:44;;;;;;;33.88;25.15;;;34.00;72.40;;;;;;1868783;75;21166;-85
2023/05/21 02:09:19;;;;;;;30.60;24.85;;;34.00;72.50;;;;;;1917178;72;21125;-86
2023/05/21 02:11:50;;;;;;;31.90;24.72;;;34.00;71.90;;;;;;1903325;75;21149;-85
2023/05/21 02:14:24;;;;;;;28.50;25.25;;;34.00;71.60;;;;;;1903021;75;21094;-86
2023/05/21 02:16:56;;;;;;;34.05;25.95;;;34.10;71.80;;;;;;1888625;72;21711;-86
2023/05/21 02:19:27;;;;;;;33.65;24.23;;;34.10;71.90;;;;;;1945424;73;21128;-85
2023/05/21 02:21:59;;;;;;;46.88;31.05;;;34.20;71.70;;;;;;1898655;74;21199;-84
2023/05/21 02:24:30;;;;;;;26.85;22.37;;;34.30;71.80;;;;;;1941440;72;21162;-86
2023/05/21 02:27:01;;;;;;;30.68;23.30;;;34.50;70.10;;;;;;1935283;73;21181;-85
2023/05/21 02:29:32;;;;;;;29.18;23.35;;;34.60;70.30;;;;;;1883933;73;21119;-85
2023/05/21 02:32:04;;;;;;;31.35;22.98;;;34.60;70.20;;;;;;1942266;73;21608;-86
2023/05/21 02:34:41;;;;;;;36.40;22.25;;;34.70;69.60;;;;;;1927927;73;21213;-83
2023/05/21 02:37:08;;;;;;;26.25;20.85;;;34.80;67.90;;;;;;1928200;73;21183;-83
2023/05/21 02:39:39;;;;;;;30.23;21.42;;;34.80;66.60;;;;;;1919889;73;21114;-87
2023/05/21 02:42:10;;;;;;;30.80;21.97;;;34.90;68.00;;;;;;1928212;73;21171;-88
2023/05/21 02:44:41;;;;;;;32.15;22.35;;;35.00;67.20;;;;;;1928634;72;21287;-88
2023/05/21 02:47:12;;;;;;;33.23;21.35;;;35.00;67.20;;;;;;1897845;73;21131;-89
2023/05/21 02:49:43;;;;;;;34.85;22.70;;;35.00;67.50;;;;;;1891562;74;21140;-88
2023/05/21 02:52:14;;;;;;;29.32;22.45;;;35.00;67.40;;;;;;1905844;74;21131;-87
2023/05/21 02:54:47;;;;;;;24.72;20.20;;;35.10;66.50;;;;;;1885444;73;21548;-85
2023/05/21 02:57:19;;;;;;;25.52;19.77;;;35.10;66.20;;;;;;1913820;73;21181;-86
2023/05/21 02:59:50;;;;;;;25.62;20.05;;;35.20;66.70;;;;;;1922010;73;21163;-89
2023/05/21 03:02:21;;;;;;;24.72;19.98;;;35.30;65.80;;;;;;1919939;72;21174;-86
2023/05/21 03:04:53;;;;;;;24.95;20.37;;;35.30;65.80;;;;;;1903966;73;21270;-85
2023/05/21 03:07:24;;;;;;;31.20;20.50;;;35.40;65.50;;;;;;1903986;72;21225;-89
2023/05/21 03:09:55;;;;;;;35.17;20.80;;;35.50;65.70;;;;;;1905701;73;21146;-88
2023/05/21 03:12:26;;;;;;;28.38;20.37;;;35.60;64.80;;;;;;1913991;73;21092;-87
2023/05/21 03:14:58;;;;;;;23.60;19.30;;;35.60;64.30;;;;;;1919273;73;21153;-86
2023/05/21 03:17:29;;;;;;;27.67;20.43;;;35.60;64.60;;;;;;1930632;73;21221;-86
2023/05/21 03:20:00;;;;;;;27.13;20.40;;;35.60;65.30;;;;;;1904668;74;21164;-88
2023/05/21 03:22:31;;;;;;;31.73;21.20;;;35.60;65.00;;;;;;1924646;72;21127;-88
2023/05/21 03:25:03;;;;;;;30.15;19.77;;;35.60;64.60;;;;;;1921632;72;21159;-86
2023/05/21 03:27:34;;;;;;;28.87;20.57;;;35.70;64.40;;;;;;1921843;73;21976;-86
2023/05/21 03:30:11;;;;;;;30.72;21.50;;;35.80;63.90;;;;;;1882664;75;21615;-86
2023/05/21 03:32:40;;;;;;;35.85;21.05;;;35.80;63.40;;;;;;1882604;74;21119;-88
2023/05/21 03:35:11;;;;;;;31.33;19.90;;;35.90;62.80;;;;;;1899934;74;21153;-88
2023/05/21 03:37:43;;;;;;;27.17;20.37;;;36.00;63.20;;;;;;1934597;74;21131;-88
2023/05/21 03:40:29;;;;;;;29.37;21.42;;;36.10;62.90;;;;;;1896448;73;21136;-87
2023/05/21 03:42:55;;;;;;;28.67;20.32;;;36.20;61.70;;;;;;1844973;74;21655;-86
2023/05/21 03:45:35;;;;;;;27.53;18.63;;;36.20;61.80;;;;;;1886493;74;21195;-88
2023/05/21 03:48:17;;;;;;;26.15;20.95;;;36.20;60.90;;;;;;1901480;73;21162;-88
2023/05/21 03:50:48;;;;;;;26.70;19.82;;;36.30;61.40;;;;;;1912026;73;21156;-87
2023/05/21 03:53:19;;;;;;;24.95;18.42;;;36.40;62.10;;;;;;1908864;74;21088;-87
2023/05/21 03:55:53;;;;;;;27.60;19.80;;;36.50;60.40;;;;;;1920084;73;21124;-87
2023/05/21 03:58:23;;;;;;;28.15;19.37;;;36.60;60.80;;;;;;1919482;73;21248;-87
2023/05/21 04:00:54;;;;;;;29.98;19.23;;;36.70;59.80;;;;;;1910189;73;21566;-90
2023/05/21 04:03:25;;;;;;;24.63;18.95;;;36.70;59.70;;;;;;1901168;73;21119;-88
2023/05/21 04:05:58;;;;;;;25.37;18.55;;;36.70;59.50;;;;;;1910421;73;21575;-89
2023/05/21 04:08:29;;;;;;;21.90;19.48;;;36.60;59.90;;;;;;1901924;73;21123;-90
2023/05/21 04:11:00;;;;;;;30.37;19.60;;;36.50;60.80;;;;;;1911106;73;21163;-90
2023/05/21 04:13:35;;;;;;;25.92;19.10;;;36.60;60.80;;;;;;1884312;75;21170;-89
2023/05/21 04:16:07;;;;;;;25.12;18.73;;;36.70;58.90;;;;;;1921322;74;21294;-89
2023/05/21 04:18:38;;;;;;;23.00;17.67;;;36.80;59.00;;;;;;1885288;75;21243;-91
2023/05/21 04:21:15;;;;;;;31.90;17.23;;;36.90;57.60;;;;;;1895635;72;21089;-88
2023/05/21 04:23:45;;;;;;;27.20;20.02;;;36.90;57.60;;;;;;1871185;75;21089;-88
2023/05/21 04:26:16;;;;;;;26.35;19.42;;;36.90;58.70;;;;;;1908551;73;21236;-79
2023/05/21 04:28:49;;;;;;;28.17;18.75;;;36.90;58.30;;;;;;1904389;74;21212;-83
2023/05/21 04:31:20;;;;;;;23.60;18.42;;;36.90;58.90;;;;;;1919642;73;21147;-80
2023/05/21 04:33:52;;;;;;;29.15;18.85;;;37.00;58.90;;;;;;1923940;73;21121;-81
2023/05/21 04:36:23;;;;;;;25.27;17.77;;;37.10;58.40;;;;;;1916327;73;21248;-80
2023/05/21 04:39:13;;;;;;;21.93;18.00;;;37.20;57.30;;;;;;1935164;72;21147;-81
2023/05/21 04:41:44;;;;;;;22.87;18.73;;;37.40;57.80;;;;;;1922225;73;21142;-80
2023/05/21 04:44:16;;;;;;;24.50;16.93;;;37.50;57.30;;;;;;1926817;73;21128;-80
2023/05/21 04:46:49;;;;;;;25.12;17.65;;;37.50;57.40;;;;;;1920518;73;21236;-80
2023/05/21 04:49:20;;;;;;;27.22;20.60;;;37.50;56.10;;;;;;1915760;73;21170;-78
2023/05/21 04:51:51;;;;;;;29.07;19.32;;;37.50;57.40;;;;;;1890406;76;21106;-79
2023/05/21 04:54:24;;;;;;;29.27;19.40;;;37.30;58.40;;;;;;1893284;75;21218;-79
2023/05/21 04:56:57;;;;;;;29.85;19.87;;;37.20;58.40;;;;;;1894528;74;21164;-79
2023/05/21 04:59:28;;;;;;;26.37;19.98;;;37.20;58.90;;;;;;1878087;75;21270;-81
2023/05/21 05:01:59;;;;;;;29.80;19.60;;;37.30;58.10;;;;;;1863880;76;21687;-80
2023/05/21 05:04:31;;;;;;;27.42;18.82;;;37.40;58.30;;;;;;1854718;74;21170;-80
2023/05/21 05:07:02;;;;;;;30.48;19.82;;;37.40;58.30;;;;;;1860975;76;21163;-79
2023/05/21 05:09:34;;;;;;;25.50;19.50;;;37.50;58.70;;;;;;1858726;75;21168;-79
2023/05/21 05:12:25;;;;;;;32.48;20.65;;;37.50;58.10;;;;;;1852629;76;21162;-80
2023/05/21 05:14:57;;;;;;;25.57;20.27;;;37.50;57.60;;;;;;1909887;73;21156;-80
2023/05/21 05:17:28;;;;;;;29.42;21.12;;;37.50;57.50;;;;;;1896524;73;21224;-80
2023/05/21 05:19:59;;;;;;;26.95;19.82;;;37.50;58.10;;;;;;1893251;73;21123;-81
2023/05/21 05:22:30;;;;;;;35.83;22.27;;;37.50;58.20;;;;;;1884125;73;21152;-79
2023/05/21 05:25:02;;;;;;;29.85;18.12;;;37.60;58.60;;;;;;1894609;74;21232;-79
2023/05/21 05:27:33;;;;;;;27.42;18.15;;;37.60;57.00;;;;;;1904658;73;21187;-79
2023/05/21 05:30:06;;;;;;;29.75;18.23;;;37.50;56.90;;;;;;1872954;73;21203;-78
2023/05/21 05:32:37;;;;;;;21.87;18.37;;;37.40;57.30;;;;;;1899264;74;21561;-79
2023/05/21 05:35:09;;;;;;;24.90;18.48;;;37.40;57.40;;;;;;1884124;74;21195;-81
2023/05/21 05:37:41;;;;;;;27.07;17.73;;;37.40;57.50;;;;;;1857585;74;21184;-81
2023/05/21 05:40:12;;;;;;;25.17;17.23;;;37.50;56.70;;;;;;1863749;75;21538;-83
2023/05/21 05:42:43;;;;;;;29.15;18.30;;;37.50;57.20;;;;;;1874215;75;21188;-83
2023/05/21 05:45:14;;;;;;;29.60;19.45;;;37.60;57.90;;;;;;1916714;73;21191;-82
2023/05/21 05:47:46;;;;;;;25.72;17.07;;;37.70;57.60;;;;;;1900309;74;21151;-80
2023/05/21 05:50:17;;;;;;;23.27;17.62;;;37.70;56.70;;;;;;1844118;75;21603;-81
2023/05/21 05:52:48;;;;;;;27.75;19.10;;;37.80;56.30;;;;;;1841322;76;21212;-81
2023/05/21 05:55:20;;;;;;;28.45;18.65;;;37.80;56.60;;;;;;1870374;76;21108;-81
2023/05/21 05:57:52;;;;;;;23.83;17.07;;;37.80;56.40;;;;;;1855244;75;21306;-84
2023/05/21 06:00:25;;;;;;;19.55;17.10;;;37.80;55.70;;;;;;1870701;74;21175;-82
2023/05/21 06:02:58;;;;;;;26.00;19.32;;;37.80;56.30;;;;;;1852075;75;21252;-84
2023/05/21 06:05:29;;;;;;;26.40;17.60;;;37.80;56.30;;;;;;1845849;76;21194;-81
2023/05/21 06:08:00;;;;;;;25.65;16.77;;;37.80;56.60;;;;;;1842446;76;21182;-81
2023/05/21 06:10:31;;;;;;;22.20;17.45;;;37.70;56.90;;;;;;1859102;74;21207;-79
2023/05/21 06:13:02;;;;;;;21.93;18.07;;;37.60;57.00;;;;;;1896213;73;21600;-80
2023/05/21 06:15:35;;;;;;;28.67;19.10;;;37.60;57.40;;;;;;1905336;73;21164;-80
2023/05/21 06:18:06;;;;;;;26.05;19.17;;;37.60;57.40;;;;;;1880569;74;21134;-80
2023/05/21 06:20:37;;;;;;;33.08;20.43;;;37.60;57.20;;;;;;1919779;73;21150;-81
2023/05/21 06:23:10;;;;;;;24.05;19.75;;;37.70;56.70;;;;;;1917030;74;21163;-80
2023/05/21 06:25:41;;;;;;;23.38;18.42;;;37.70;56.80;;;;;;1892998;75;21131;-80
2023/05/21 06:28:13;;;;;;;26.02;17.77;;;37.70;56.00;;;;;;1887194;74;21099;-80
2023/05/21 06:30:52;;;;;;;20.52;16.85;;;37.70;55.80;;;;;;1885695;74;21601;-80
2023/05/21 06:33:30;;;;;;;22.58;16.85;;;37.80;56.10;;;;;;1890257;73;21070;-80
2023/05/21 06:36:28;;;;;;;30.55;22.50;;;37.90;55.20;;;;;;1870029;73;21297;-79
2023/05/21 06:38:53;;;;;;;26.02;18.45;;;37.90;55.70;;;;;;1893762;74;21815;-80
2023/05/21 06:41:25;;;;;;;24.00;18.25;;;38.00;55.70;;;;;;1898540;73;21076;-78
2023/05/21 06:43:57;;;;;;;25.72;17.60;;;38.00;55.30;;;;;;1891455;73;21583;-79
2023/05/21 06:46:29;;;;;;;27.40;19.02;;;38.00;55.70;;;;;;1876713;74;21139;-79
2023/05/21 06:49:05;;;;;;;26.52;17.82;;;38.10;55.30;;;;;;1877700;74;21159;-79
2023/05/21 06:51:35;;;;;;;22.45;16.73;;;38.10;55.40;;;;;;1883348;75;21121;-79
2023/05/21 06:54:06;;;;;;;29.32;18.60;;;38.00;54.50;;;;;;1908599;74;21260;-80
2023/05/21 06:56:37;;;;;;;27.58;16.60;;;37.90;54.20;;;;;;1898890;74;21142;-79
2023/05/21 06:59:09;;;;;;;36.40;17.20;;;37.80;54.90;;;;;;1914692;74;21189;-81
2023/05/21 07:01:43;;;;;;;28.70;17.70;;;37.70;55.10;;;;;;1914468;74;21704;-81
2023/05/21 07:04:15;;;;;;;27.30;16.40;;;37.60;55.70;;;;;;1895226;74;21084;-81
2023/05/21 07:06:47;;;;;;;21.37;17.00;;;37.50;55.30;;;;;;1913849;74;21181;-81
2023/05/21 07:09:21;;;;;;;28.38;18.30;;;37.40;56.70;;;;;;1919647;73;21072;-81
2023/05/21 07:11:55;;;;;;;24.18;17.10;;;37.30;56.30;;;;;;1921464;73;21126;-81
2023/05/21 07:14:26;;;;;;;21.20;16.30;;;37.20;56.50;;;;;;1863946;75;21166;-82
2023/05/21 07:16:57;;;;;;;25.23;16.55;;;37.30;56.70;;;;;;1895727;74;21110;-85
2023/05/21 07:19:28;;;;;;;21.90;16.23;;;37.30;56.10;;;;;;1863153;76;21173;-83
2023/05/21 07:21:59;;;;;;;21.50;15.68;;;37.40;55.50;;;;;;1906114;73;21188;-85
2023/05/21 07:24:32;;;;;;;20.20;15.35;;;37.50;55.40;;;;;;1879317;75;21173;-83
2023/05/21 07:27:09;;;;;;;21.97;14.80;;;37.50;55.20;;;;;;1878496;74;21131;-84
2023/05/21 07:29:38;;;;;;;19.60;15.15;;;37.60;55.50;;;;;;1835424;76;21184;-83
2023/05/21 07:32:09;;;;;;;18.82;15.13;;;37.50;55.20;;;;;;1850661;75;21115;-83
2023/05/21 07:34:43;;;;;;;19.73;14.68;;;37.50;54.80;;;;;;1884090;74;21178;-83
2023/05/21 07:37:14;;;;;;;24.37;17.07;;;37.50;55.30;;;;;;1890656;74;21182;-84
2023/05/21 07:39:51;;;;;;;21.82;15.70;;;37.60;56.10;;;;;;1879758;74;21123;-83
2023/05/21 07:42:22;;;;;;;25.50;17.00;;;37.50;55.50;;;;;;1898792;74;21218;-84
2023/05/21 07:44:54;;;;;;;24.85;16.42;;;37.60;56.40;;;;;;1929841;73;21152;-84
2023/05/21 07:47:25;;;;;;;23.45;16.27;;;37.60;56.20;;;;;;1922663;74;21146;-86
2023/05/21 07:49:57;;;;;;;21.73;15.40;;;37.70;54.90;;;;;;1894406;74;21784;-84
2023/05/21 07:52:30;;;;;;;22.17;15.08;;;37.80;54.70;;;;;;1887918;74;21197;-84
2023/05/21 07:55:05;;;;;;;22.90;16.17;;;37.90;54.60;;;;;;1857705;74;21661;-83
2023/05/21 07:57:36;;;;;;;25.02;15.03;;;37.90;54.60;;;;;;1891432;74;21235;-85
2023/05/21 08:00:16;;;;;;;26.87;16.05;;;38.00;54.20;;;;;;1883451;73;21198;-83
2023/05/21 08:02:47;;;;;;;21.77;15.45;;;38.00;54.00;;;;;;1894423;74;21421;-84
2023/05/21 08:05:20;;;;;;;23.60;15.83;;;38.00;54.20;;;;;;1839383;76;21221;-83
2023/05/21 08:07:51;;;;;;;21.82;15.80;;;38.00;53.30;;;;;;1895712;74;21085;-83
2023/05/21 08:10:22;;;;;;;22.30;14.78;;;38.00;53.40;;;;;;1900846;74;21076;-85
2023/05/21 08:12:57;;;;;;;24.52;15.03;;;37.90;54.00;;;;;;1906329;73;21104;-85
2023/05/21 08:15:31;;;;;;;20.77;15.45;;;37.90;53.00;;;;;;1886668;75;21639;-84
2023/05/21 08:18:04;;;;;;;24.52;15.03;;;37.90;54.00;;;;;;1908732;74;21214;-84
2023/05/21 08:20:38;;;;;;;31.02;15.13;;;37.90;54.00;;;;;;1862044;76;21150;-84
2023/05/21 08:23:09;;;;;;;19.32;14.68;;;37.90;53.50;;;;;;1878115;74;21783;-83
2023/05/21 08:25:40;;;;;;;21.07;15.32;;;37.90;53.10;;;;;;1867942;75;21155;-85
2023/05/21 08:28:11;;;;;;;20.05;14.78;;;37.90;53.60;;;;;;1845822;75;21661;-84
2023/05/21 08:30:42;;;;;;;22.65;14.45;;;37.90;53.40;;;;;;1853977;76;21183;-82
2023/05/21 08:33:14;;;;;;;18.62;14.80;;;37.80;53.50;;;;;;1857068;76;21652;-84
2023/05/21 08:35:47;;;;;;;25.50;14.45;;;37.80;53.90;;;;;;1867295;74;21219;-84
2023/05/21 08:38:23;;;;;;;22.60;15.43;;;37.70;53.90;;;;;;1859779;76;21145;-85
2023/05/21 08:40:55;;;;;;;19.07;15.23;;;37.80;54.00;;;;;;1906599;74;21280;-83
2023/05/21 08:43:30;;;;;;;25.15;15.18;;;37.80;54.50;;;;;;1908107;74;21087;-86
2023/05/21 08:46:04;;;;;;;24.87;15.08;;;37.80;53.90;;;;;;1902967;75;21252;-85
2023/05/21 08:48:37;;;;;;;23.10;16.48;;;37.70;53.70;;;;;;1870335;75;21173;-82
2023/05/21 08:51:08;;;;;;;19.70;15.25;;;37.80;53.90;;;;;;1904883;75;21166;-84
2023/05/21 08:53:39;;;;;;;19.30;16.23;;;37.80;54.10;;;;;;1901855;75;21157;-84
2023/05/21 08:56:12;;;;;;;21.37;14.85;;;37.90;53.60;;;;;;1900300;74;21530;-84
2023/05/21 08:58:44;;;;;;;23.98;16.75;;;37.90;52.60;;;;;;1909182;74;21188;-83
2023/05/21 09:01:18;;;;;;;18.90;14.38;;;37.90;52.90;;;;;;1924137;73;21145;-84
2023/05/21 09:03:52;;;;;;;21.30;16.52;;;37.80;52.80;;;;;;1912472;73;21117;-85
2023/05/21 09:06:25;;;;;;;21.90;15.28;;;37.80;52.70;;;;;;1896867;74;21150;-83
2023/05/21 09:09:04;;;;;;;21.05;15.53;;;37.80;53.00;;;;;;1890052;75;21091;-85
2023/05/21 09:11:35;;;;;;;17.57;15.05;;;37.70;53.00;;;;;;1890445;74;21152;-84
2023/05/21 09:14:08;;;;;;;24.47;16.23;;;37.70;53.40;;;;;;1879174;74;21190;-84
2023/05/21 09:16:39;;;;;;;20.55;15.55;;;37.70;53.70;;;;;;1899508;74;21209;-84
2023/05/21 09:19:10;;;;;;;23.50;16.27;;;37.70;54.00;;;;;;1878053;74;21757;-83
2023/05/21 09:21:41;;;;;;;27.62;15.25;;;37.70;53.70;;;;;;1887775;72;21149;-83
2023/05/21 09:24:13;;;;;;;22.35;15.08;;;37.70;54.00;;;;;;1895054;74;21160;-84
2023/05/21 09:26:48;;;;;;;19.23;16.00;;;37.60;53.50;;;;;;1907314;74;21218;-83
2023/05/21 09:30:14;;;;;;;24.00;15.23;;;37.60;53.50;;;;;;1842130;74;21174;-84
2023/05/21 09:32:53;;;;;;;21.27;16.20;;;37.50;53.80;;;;;;1731113;80;21221;-84
2023/05/21 09:35:24;;;;;;;;;;;37.60;54.20;;;;;;1742921;81;21230;-84
2023/05/21 09:38:09;;;;;;;26.68;16.25;;;37.60;53.50;;;;;;1735593;79;20204;-82
2023/05/21 09:44:14;;;;;;;18.80;15.38;;;37.60;54.40;;;;;;1678261;81;21233;-79
2023/05/21 09:46:45;;;;;;;19.00;15.70;;;37.50;54.10;;;;;;1721233;81;21330;-79
2023/05/21 09:49:26;;;;;;;21.85;15.75;;;37.50;53.80;;;;;;1748100;81;21958;-79
2023/05/21 09:51:58;;;;;;;20.72;14.38;;;37.50;54.20;;;;;;1744673;81;21357;-80
2023/05/21 09:54:33;;;;;;;22.85;15.53;;;37.50;54.20;;;;;;1743619;80;21713;-82
2023/05/21 09:57:04;;;;;;;27.32;15.55;;;37.60;53.40;;;;;;1743713;80;21200;-81
2023/05/21 09:59:39;;;;;;;22.05;15.18;;;37.60;53.60;;;;;;1700417;82;21300;-79
2023/05/21 10:02:25;;;;;;;19.57;15.32;;;37.50;53.80;;;;;;1751858;79;21662;-80
2023/05/21 10:04:56;;;;;;;;;;;37.60;54.00;;;;;;1757220;79;21735;-78
2023/05/21 10:07:28;;;;;;;20.25;15.10;;;37.60;53.90;;;;;;1743698;80;20458;-79
2023/05/21 10:10:02;;;;;;;27.58;16.67;;;37.60;54.00;;;;;;1774449;75;21141;-79
2023/05/21 10:12:35;;;;;;;24.72;16.95;;;37.50;54.00;;;;;;1885206;74;21108;-76
2023/05/21 10:15:09;;;;;;;21.07;15.80;;;37.60;54.10;;;;;;1855997;75;21636;-77
2023/05/21 10:17:42;;;;;;;22.95;15.15;;;37.50;54.80;;;;;;1855363;74;21188;-78
2023/05/21 10:20:13;;;;;;;21.57;15.32;;;37.50;54.60;;;;;;1874632;75;21117;-77
2023/05/21 10:22:45;;;;;;;23.18;15.60;;;37.40;54.30;;;;;;1896122;73;21146;-78
2023/05/21 10:25:17;;;;;;;23.02;16.32;;;37.30;54.30;;;;;;1868753;76;21069;-79
2023/05/21 10:27:49;;;;;;;27.25;16.93;;;37.30;54.10;;;;;;1923513;73;21655;-78
2023/05/21 10:30:21;;;;;;;20.12;15.23;;;37.30;53.90;;;;;;1889634;74;21192;-79
2023/05/21 10:32:54;;;;;;;21.65;16.25;;;37.20;53.90;;;;;;1851782;75;21182;-78
2023/05/21 10:35:25;;;;;;;21.25;16.15;;;37.20;54.10;;;;;;1850292;75;21165;-80
2023/05/21 10:37:59;;;;;;;26.68;17.30;;;37.20;54.40;;;;;;1838415;75;21257;-79
2023/05/21 10:40:30;;;;;;;23.62;16.75;;;37.10;54.20;;;;;;1889476;74;21083;-78
2023/05/21 10:43:15;;;;;;;26.20;17.60;;;37.10;54.10;;;;;;1918007;73;21190;-79
2023/05/21 10:45:55;;;;;;;21.68;16.37;;;37.00;53.90;;;;;;1902561;74;21081;-80
2023/05/21 10:48:40;;;;;;;23.20;16.97;;;37.00;54.00;;;;;;1901681;75;21129;-78
2023/05/21 10:51:17;;;;;;;26.80;16.65;;;37.00;54.00;;;;;;1876993;75;21689;-78
2023/05/21 10:54:15;;;;;;;29.48;18.05;;;36.90;54.00;;;;;;1894535;74;21135;-79
2023/05/21 10:57:05;;;;;;;29.05;20.32;;;37.00;54.00;;;;;;1884462;74;21223;-80
2023/05/21 10:59:47;;;;;;;35.30;27.07;;;36.90;54.20;;;;;;1861774;74;21773;-78
2023/05/21 11:02:20;;;;;;;26.65;18.82;;;36.90;54.50;;;;;;1900522;73;21208;-80
2023/05/21 11:05:03;;;;;;;24.05;17.00;;;36.80;54.50;;;;;;1872069;74;21152;-78
2023/05/21 11:07:55;;;;;;;21.82;16.50;;;36.80;54.90;;;;;;1882130;75;21173;-79
2023/05/21 11:10:44;;;;;;;23.73;18.77;;;36.70;55.30;;;;;;1866615;75;21274;-80
2023/05/21 11:13:18;;;;;;;24.20;17.57;;;36.70;54.90;;;;;;1896451;74;21109;-79
2023/05/21 11:16:04;;;;;;;21.27;17.50;;;36.60;55.00;;;;;;1906831;73;21204;-79
2023/05/21 11:18:37;;;;;;;23.65;18.37;;;36.70;55.10;;;;;;1896742;73;21747;-79
2023/05/21 11:21:14;;;;;;;20.95;17.50;;;36.60;54.90;;;;;;1848896;75;21110;-79
2023/05/21 11:23:59;;;;;;;24.12;19.32;;;36.60;55.00;;;;;;1907768;72;21642;-80
2023/05/21 11:26:42;;;;;;;24.80;20.65;;;36.50;55.00;;;;;;1864792;74;21125;-80
2023/05/21 11:29:13;;;;;;;22.65;18.65;;;36.50;55.00;;;;;;1837547;76;21096;-80
2023/05/21 11:31:52;;;;;;;22.85;19.37;;;36.50;55.10;;;;;;1906782;74;21171;-77
2023/05/21 11:34:33;;;;;;;25.35;18.42;;;36.40;55.20;;;;;;1900142;74;22191;-87
2023/05/21 11:37:25;;;;;;;22.77;18.40;;;36.50;55.60;;;;;;1870998;76;21133;-86
2023/05/21 11:40:08;;;;;;;23.10;19.10;;;36.40;55.50;;;;;;1903930;74;21542;-90
2023/05/21 11:46:01;;;;;;;25.82;18.75;;;36.40;55.60;;;;;;1747571;80;21123;-86
2023/05/21 11:48:44;;;;;;;25.68;19.37;;;36.40;55.60;;;;;;1817722;77;21229;-88
2023/05/21 11:57:46;;;;;;;33.25;25.25;;;36.30;55.80;;;;;;1829126;73;21156;-88
2023/05/21 12:00:14;;;;;;;48.90;30.50;;;36.30;55.90;;;;;;1819628;76;21557;-89
2023/05/21 12:03:25;;;;;;;;;;;;;;;;;;;;;
2023/05/21 12:05:47;;;;;;;33.92;27.82;;;36.20;55.90;;;;;;1842120;75;21489;-89
2023/05/21 12:11:50;;;;;;;29.65;26.37;;;36.20;56.00;;;;;;1809358;75;21114;-87
2023/05/21 12:14:47;;;;;;;34.63;26.77;;;36.20;55.90;;;;;;1871592;75;21157;-86
2023/05/21 12:20:49;;;;;;;37.45;26.23;;;36.20;56.30;;;;;;1884263;73;21242;-87
2023/05/21 12:33:50;;;;;;;;;;;;;;;;;;;;;
2023/05/21 12:36:04;;;;;;;31.93;23.77;;;36.10;56.80;;;;;;1619725;87;21500;-87
2023/05/21 12:39:15;;;;;;;32.95;25.48;;;36.10;56.90;;;;;;1990351;71;22175;-88
2023/05/21 12:41:49;;;;;;;35.48;25.05;;;36.10;57.00;;;;;;1932458;73;21216;-87
2023/05/21 12:47:54;;;;;;;36.33;25.08;;;36.00;57.20;;;;;;1803680;77;21231;-86
2023/05/21 12:50:34;;;;;;;;;;;36.00;57.40;;;;;;1841897;75;21163;-85
2023/05/21 12:53:02;;;;;;;30.75;22.98;;;35.90;57.40;;;;;;1959647;73;20259;-84
2023/05/21 12:59:04;;;;;;;32.90;23.05;;;35.90;57.70;;;;;;1882145;72;21180;-86
2023/05/21 13:01:42;;;;;;;28.47;24.13;;;35.90;58.00;;;;;;1864791;75;21168;-85
2023/05/21 13:04:29;;;;;;;30.45;23.35;;;35.80;58.10;;;;;;1817831;76;21134;-85
2023/05/21 13:07:08;;;;;;;31.50;24.02;;;35.80;58.30;;;;;;1865562;76;21119;-86
2023/05/21 13:09:37;;;;;;;33.83;23.57;;;35.80;58.50;;;;;;1855030;75;21117;-86
2023/05/21 13:12:08;;;;;;;36.25;24.15;;;35.80;58.60;;;;;;1846786;76;21809;-84
2023/05/21 13:14:39;;;;;;;26.30;21.10;;;35.70;58.50;;;;;;1835362;77;21809;-86
2023/05/21 13:17:18;;;;;;;27.55;21.23;;;35.80;58.60;;;;;;1862549;76;21130;-85
2023/05/21 13:20:31;;;;;;;29.18;20.68;;;35.70;58.70;;;;;;1857898;76;21629;-87
2023/05/21 13:23:24;;;;;;;37.45;21.00;;;35.70;59.10;;;;;;1878546;75;21170;-85
2023/05/21 13:25:56;;;;;;;26.25;18.62;;;35.50;59.70;;;;;;1823730;77;21594;-86
2023/05/21 13:31:39;;;;;;;25.90;16.60;;;35.20;61.10;;;;;;1860209;75;21722;-85
2023/05/21 13:34:31;;;;;;;30.85;15.18;;;35.00;61.30;;;;;;1859640;75;21604;-85
2023/05/21 13:37:04;;;;;;;27.35;14.70;;;34.80;61.20;;;;;;1860413;76;21203;-85
2023/05/21 13:39:35;;;;;;;23.32;14.90;;;34.70;61.30;;;;;;1833853;76;21694;-85
2023/05/21 13:42:10;;;;;;;22.95;13.83;;;34.60;61.20;;;;;;1867530;76;21114;-85
2023/05/21 13:44:51;;;;;;;22.10;12.43;;;34.50;61.10;;;;;;1870862;76;21147;-85
2023/05/21 13:47:28;;;;;;;19.05;12.03;;;34.40;60.40;;;;;;1871608;75;21190;-84